Portada
METAR-TAF:

METAR-TAF

Aeroports :

Bhavnagar, Índia

latitud: 21-45-08N, longitud: 72-11-07E, altitud: 6 m

Observació

L'informe es va fer fa 11 hores i 25 minuts, a les 12:00 UTC
Vent 8 kt del Sud
Temperatura 28°C
Humitat 70%
Pressió 1011 hPa
Visibilitat: 6000 m
Escasses núvols a una alçada de 2000 ft

METAR: VABV 241200Z 18008KT 6000 FEW020 28/22 Q1011

Hora: 04:55 (23:25 UTC)

Pronòstic

L'informe es va fer fa 3 hores i 25 minuts, a les 20:00 UTC
Pronòstic vàlid del 24 a les 21 UTC al 25 a les 06 UTC
Vent 4 kt del Sud
Visibilitat: 4000 m
Escasses núvols a una alçada de 2000 ft
Núvols disperses a una alçada de 2500 ft
Evolucionant progressivament
l' 25 a les 01 UTC al 25 a les 03 UTC
Vent 4 kt del Nord-Oest
Visibilitat: 3000 m
calitja
Evolucionant progressivament
l' 25 a les 04 UTC al 25 a les 06 UTC
Vent 3 kt del Nord-Oest
Visibilitat: 6000 m

TAF: VABV 242000Z 2421/2506 18004KT 4000 BRHZ FEW020 SCT025 BECMG 2501/2503 32004KT 3000 HZ NSC BECMG 2504/2506 32003KT 6000

Observacions i pronòstics meteorològics de més de 4000 aeroports (METAR i TAF).

Les estacions disponibles són els punts grocs i vermells al mapa.

Posi el ratolí al punt desitjat per veure el nom de l'estació.

Feu clic per veure les observacions i els pronòstics meteorològics.

Per canviar el mapa: feu clic els botons verds amb una creu de color negre per apropar; al botó verd amb un guió per allunyar la imatge; o en les fletxes verdes per a mapes adjacents.


METAR-TAF: